Time;durP1;ratioP1;P1;durP2;ratioP2;P2;SDS_P1;SDS_P2;PMS_P1;PMS_P2;Temp;Humidity;BMP_temperature;BMP_pressure;BME280_temperature;BME280_humidity;BME280_pressure;Samples;Min_cycle;Max_cycle;Signal;HPM_P1;HPM_P2
2022/09/18 00:01:50;;;;;;;3.30;1.60;;;10.20;99.90;;;;;;5007665;28;20224;-78
2022/09/18 00:04:16;;;;;;;3.08;1.40;;;10.20;99.90;;;;;;5007827;28;20207;-78
2022/09/18 00:06:45;;;;;;;3.78;1.30;;;10.20;99.90;;;;;;5008994;28;20226;-78
2022/09/18 00:09:15;;;;;;;3.90;1.60;;;10.20;99.90;;;;;;5011263;28;20211;-78
2022/09/18 00:11:45;;;;;;;3.22;1.40;;;10.20;99.90;;;;;;5008560;28;20225;-78
2022/09/18 00:14:15;;;;;;;3.17;1.60;;;10.20;99.90;;;;;;5011888;28;20208;-79
2022/09/18 00:16:43;;;;;;;2.45;1.70;;;10.20;99.90;;;;;;5011935;28;20312;-78
2022/09/18 00:19:10;;;;;;;3.67;1.77;;;10.20;99.90;;;;;;5016498;28;20195;-79
2022/09/18 00:21:40;;;;;;;4.90;1.52;;;10.10;99.90;;;;;;5009585;28;20231;-78
2022/09/18 00:24:07;;;;;;;3.00;1.50;;;10.10;99.90;;;;;;5010642;28;20689;-78
2022/09/18 00:26:36;;;;;;;4.70;1.83;;;10.10;99.90;;;;;;5010892;28;20225;-79
2022/09/18 00:29:03;;;;;;;4.35;1.58;;;10.10;99.90;;;;;;5010766;28;20205;-79
2022/09/18 00:31:33;;;;;;;6.38;1.60;;;10.10;99.90;;;;;;5009564;28;20228;-79
2022/09/18 00:34:02;;;;;;;5.00;1.77;;;10.10;99.90;;;;;;5010394;28;20236;-79
2022/09/18 00:36:30;;;;;;;5.25;1.90;;;10.10;99.90;;;;;;5008033;28;20387;-79
2022/09/18 00:38:58;;;;;;;5.18;1.80;;;10.10;99.90;;;;;;5011209;28;20559;-78
2022/09/18 00:41:27;;;;;;;4.55;1.60;;;10.10;99.90;;;;;;5009964;28;20291;-78
2022/09/18 00:44:30;;;;;;;3.20;1.70;;;10.10;99.90;;;;;;5010522;28;20197;-78
2022/09/18 00:47:00;;;;;;;3.35;1.50;;;10.10;99.90;;;;;;5008932;28;20228;-79
2022/09/18 00:49:29;;;;;;;3.25;1.80;;;10.10;99.90;;;;;;5008868;28;20272;-79
2022/09/18 00:51:59;;;;;;;4.72;1.70;;;10.10;99.90;;;;;;5009834;28;20247;-79
2022/09/18 00:54:30;;;;;;;11.05;2.35;;;10.10;99.90;;;;;;5011796;28;20295;-78
2022/09/18 00:57:04;;;;;;;5.38;1.98;;;10.10;99.90;;;;;;5011249;28;20256;-78
2022/09/18 00:59:35;;;;;;;3.85;1.50;;;10.10;99.90;;;;;;5012141;28;20208;-78
2022/09/18 01:02:04;;;;;;;2.60;1.80;;;10.00;99.90;;;;;;5012212;28;20564;-79
2022/09/18 01:04:32;;;;;;;3.55;2.05;;;10.00;99.90;;;;;;5006889;28;20198;-79
2022/09/18 01:07:05;;;;;;;1.75;1.55;;;10.10;99.90;;;;;;5010611;28;20314;-78
2022/09/18 01:09:41;;;;;;;4.22;2.08;;;10.00;99.90;;;;;;5012976;28;20196;-79
2022/09/18 01:12:15;;;;;;;5.05;1.65;;;10.00;99.90;;;;;;5006728;28;20233;-79
2022/09/18 01:14:52;;;;;;;4.15;1.70;;;10.00;99.90;;;;;;5010772;28;20203;-78
2022/09/18 01:17:29;;;;;;;2.53;1.70;;;10.00;99.90;;;;;;5012910;28;20281;-78
2022/09/18 01:20:33;;;;;;;5.65;1.92;;;10.00;99.90;;;;;;5009803;28;20228;-79
2022/09/18 01:23:14;;;;;;;3.90;1.40;;;10.10;99.90;;;;;;5011007;28;20201;-79
2022/09/18 01:25:56;;;;;;;3.13;1.50;;;10.10;99.90;;;;;;5010526;28;20211;-78
2022/09/18 01:28:31;;;;;;;3.92;1.20;;;10.00;99.90;;;;;;5012315;28;20197;-78
2022/09/18 01:31:03;;;;;;;3.97;1.70;;;10.00;99.90;;;;;;5008746;28;20369;-79
2022/09/18 01:33:38;;;;;;;4.72;1.70;;;10.00;99.90;;;;;;5006090;28;20200;-78
2022/09/18 01:36:10;;;;;;;4.70;1.50;;;9.90;99.90;;;;;;5025855;28;20202;-78
2022/09/18 01:38:42;;;;;;;2.08;1.40;;;9.90;99.90;;;;;;5014783;28;20259;-79
2022/09/18 01:41:12;;;;;;;6.53;1.60;;;9.90;99.90;;;;;;5009149;28;20227;-79
2022/09/18 01:43:42;;;;;;;4.45;1.65;;;10.10;99.90;;;;;;5011397;28;20210;-78
2022/09/18 01:46:14;;;;;;;3.83;1.42;;;9.80;99.90;;;;;;5017086;28;20674;-78
2022/09/18 01:48:45;;;;;;;4.30;1.60;;;9.80;99.90;;;;;;5007853;28;21184;-78
2022/09/18 01:51:17;;;;;;;2.78;1.15;;;9.70;99.90;;;;;;5006697;28;20224;-78
2022/09/18 01:53:48;;;;;;;5.05;2.17;;;9.70;99.90;;;;;;5005578;28;20200;-78
2022/09/18 01:56:19;;;;;;;6.80;1.55;;;9.70;99.90;;;;;;5008920;28;20254;-79
2022/09/18 01:58:50;;;;;;;2.05;1.30;;;9.70;99.90;;;;;;5003345;28;20576;-78
2022/09/18 02:01:20;;;;;;;3.00;1.45;;;9.70;99.90;;;;;;5017478;28;20283;-78
2022/09/18 02:03:51;;;;;;;3.10;1.60;;;9.60;99.90;;;;;;5000640;28;20287;-79
2022/09/18 02:06:22;;;;;;;2.60;1.40;;;9.60;99.90;;;;;;5012364;28;20295;-79
2022/09/18 02:08:52;;;;;;;5.20;1.60;;;9.70;99.90;;;;;;5020358;28;20200;-79
2022/09/18 02:11:21;;;;;;;3.45;1.50;;;9.70;99.90;;;;;;5011890;28;20318;-79
2022/09/18 02:13:53;;;;;;;4.70;1.27;;;9.70;99.90;;;;;;5012512;28;20588;-78
2022/09/18 02:16:26;;;;;;;3.08;1.70;;;9.70;99.90;;;;;;5012702;28;20228;-78
2022/09/18 02:18:56;;;;;;;3.90;1.75;;;9.70;99.90;;;;;;5008892;28;20279;-79
2022/09/18 02:21:28;;;;;;;5.78;1.67;;;9.70;99.90;;;;;;5012994;28;20283;-78
2022/09/18 02:24:01;;;;;;;3.40;2.00;;;9.70;99.90;;;;;;5017668;28;20237;-78
2022/09/18 02:26:28;;;;;;;3.72;2.10;;;9.70;99.90;;;;;;4998644;28;20221;-78
2022/09/18 02:28:57;;;;;;;2.88;1.50;;;9.80;99.90;;;;;;5011479;28;20206;-78
2022/09/18 02:31:25;;;;;;;4.47;1.58;;;9.80;99.90;;;;;;5012019;28;20686;-78
2022/09/18 02:33:54;;;;;;;3.85;1.88;;;9.80;99.90;;;;;;5012171;28;20618;-78
2022/09/18 02:36:47;;;;;;;4.20;1.50;;;9.80;99.90;;;;;;5014218;28;20216;-78
2022/09/18 02:39:29;;;;;;;3.17;1.70;;;9.80;99.90;;;;;;5014323;28;20294;-78
2022/09/18 02:42:02;;;;;;;4.63;1.65;;;9.80;99.90;;;;;;5017125;28;20197;-78
2022/09/18 02:44:42;;;;;;;2.60;1.90;;;9.80;99.90;;;;;;5011283;28;20289;-77
2022/09/18 02:47:19;;;;;;;3.30;2.00;;;9.80;99.90;;;;;;5009387;28;20245;-78
2022/09/18 02:49:56;;;;;;;1.83;1.50;;;9.80;99.90;;;;;;5013404;28;20212;-77
2022/09/18 02:52:27;;;;;;;4.22;1.70;;;9.80;99.90;;;;;;5012578;28;20240;-79
2022/09/18 02:54:57;;;;;;;3.90;1.73;;;9.80;99.90;;;;;;5008346;28;20279;-79
2022/09/18 02:57:32;;;;;;;2.13;1.40;;;9.80;99.90;;;;;;5009520;28;20229;-77
2022/09/18 03:00:02;;;;;;;2.15;1.58;;;9.90;99.90;;;;;;5012365;28;20197;-78
2022/09/18 03:02:29;;;;;;;2.70;1.42;;;9.90;99.90;;;;;;5012712;28;20201;-78
2022/09/18 03:04:56;;;;;;;1.73;1.40;;;9.90;99.90;;;;;;5016381;28;20782;-79
2022/09/18 03:07:23;;;;;;;3.92;1.95;;;10.00;99.90;;;;;;5011065;28;20307;-78
2022/09/18 03:09:50;;;;;;;3.72;1.80;;;10.00;99.90;;;;;;5011824;28;20556;-79
2022/09/18 03:12:17;;;;;;;2.67;1.52;;;9.90;99.90;;;;;;5011635;28;20229;-78
2022/09/18 03:14:44;;;;;;;4.78;1.60;;;9.90;99.90;;;;;;5012976;28;20254;-79
2022/09/18 03:17:12;;;;;;;2.08;1.65;;;9.90;99.90;;;;;;5011768;28;20232;-79
2022/09/18 03:19:39;;;;;;;3.63;1.55;;;9.90;99.90;;;;;;5013356;28;20246;-79
2022/09/18 03:22:06;;;;;;;2.20;1.63;;;9.90;99.90;;;;;;5009997;28;20281;-78
2022/09/18 03:24:33;;;;;;;2.53;1.80;;;9.90;99.90;;;;;;5011203;28;20634;-77
2022/09/18 03:27:01;;;;;;;4.00;1.60;;;9.80;99.90;;;;;;5010205;28;20222;-78
2022/09/18 03:29:28;;;;;;;1.65;1.45;;;9.90;99.90;;;;;;5011097;28;20238;-78
2022/09/18 03:31:55;;;;;;;1.60;1.50;;;9.90;99.90;;;;;;5012942;28;20287;-78
2022/09/18 03:34:24;;;;;;;1.85;1.40;;;9.90;99.90;;;;;;5010864;28;20204;-78
2022/09/18 03:36:52;;;;;;;2.63;1.65;;;9.80;99.90;;;;;;5008815;28;20215;-78
2022/09/18 03:39:19;;;;;;;4.65;1.90;;;9.80;99.90;;;;;;5012905;28;20199;-78
2022/09/18 03:41:46;;;;;;;2.28;1.50;;;9.90;99.90;;;;;;5012828;28;20290;-78
2022/09/18 03:44:13;;;;;;;1.63;1.52;;;9.90;99.90;;;;;;5011625;28;20284;-79
2022/09/18 03:46:40;;;;;;;3.20;1.90;;;9.90;99.90;;;;;;5010256;28;20306;-78
2022/09/18 03:49:07;;;;;;;3.25;1.60;;;9.80;99.90;;;;;;5011787;28;20220;-78
2022/09/18 03:51:36;;;;;;;2.65;1.90;;;9.90;99.90;;;;;;5008331;28;20649;-78
2022/09/18 03:54:03;;;;;;;3.03;1.90;;;9.90;99.90;;;;;;5012966;28;20197;-78
2022/09/18 03:56:30;;;;;;;4.68;1.60;;;9.90;99.90;;;;;;5013187;28;20223;-78
2022/09/18 03:58:57;;;;;;;2.78;1.80;;;9.90;99.90;;;;;;5022016;28;20242;-78
2022/09/18 04:01:24;;;;;;;2.58;1.90;;;9.90;99.90;;;;;;5016060;28;20616;-78
2022/09/18 04:03:51;;;;;;;3.03;1.75;;;9.90;99.90;;;;;;5011684;28;20713;-78
2022/09/18 04:06:18;;;;;;;2.80;1.70;;;9.90;99.90;;;;;;5007327;28;20617;-79
2022/09/18 04:08:46;;;;;;;4.50;1.98;;;9.90;99.90;;;;;;5011158;28;20281;-78
2022/09/18 04:11:13;;;;;;;1.90;1.40;;;9.90;99.90;;;;;;5009981;28;20211;-78
2022/09/18 04:13:40;;;;;;;3.22;1.85;;;9.90;99.90;;;;;;5010722;28;20218;-79
2022/09/18 04:16:07;;;;;;;2.28;1.60;;;9.90;99.90;;;;;;5010536;28;20263;-79
2022/09/18 04:18:34;;;;;;;2.30;1.80;;;9.90;99.90;;;;;;5008343;28;20199;-79
2022/09/18 04:21:01;;;;;;;2.63;1.60;;;9.90;99.90;;;;;;5008075;28;20248;-79
2022/09/18 04:23:28;;;;;;;2.58;1.60;;;9.90;99.90;;;;;;5008826;28;20328;-78
2022/09/18 04:25:57;;;;;;;1.52;1.40;;;9.90;99.90;;;;;;5016620;28;20213;-79
2022/09/18 04:28:24;;;;;;;3.55;1.70;;;10.00;99.90;;;;;;5026232;28;20287;-79
2022/09/18 04:30:51;;;;;;;3.13;1.80;;;9.90;99.90;;;;;;5007780;28;20192;-79
2022/09/18 04:33:18;;;;;;;2.00;1.45;;;9.90;99.90;;;;;;5008545;28;20245;-78
2022/09/18 04:35:45;;;;;;;2.30;1.70;;;9.90;99.90;;;;;;5007398;28;20229;-79
2022/09/18 04:38:12;;;;;;;2.72;1.65;;;9.90;99.90;;;;;;5030464;28;20206;-79
2022/09/18 04:40:38;;;;;;;1.83;1.60;;;9.90;99.90;;;;;;5015625;28;20286;-79
2022/09/18 04:43:09;;;;;;;3.15;1.55;;;9.80;99.90;;;;;;5013084;28;20195;-79
2022/09/18 04:45:36;;;;;;;3.25;1.90;;;9.80;99.90;;;;;;5008286;28;20602;-79
2022/09/18 04:48:03;;;;;;;2.58;1.80;;;9.80;99.90;;;;;;5024470;28;20207;-79
2022/09/18 04:50:30;;;;;;;1.65;1.40;;;9.90;99.90;;;;;;5012267;28;20640;-79
2022/09/18 04:52:57;;;;;;;5.00;2.05;;;9.90;99.90;;;;;;5012421;28;20226;-80
2022/09/18 04:55:24;;;;;;;2.08;1.88;;;9.90;99.90;;;;;;5007665;28;20718;-79
2022/09/18 04:57:51;;;;;;;3.50;2.30;;;9.90;99.90;;;;;;5007947;28;20244;-80
2022/09/18 05:00:20;;;;;;;3.28;1.90;;;9.90;99.90;;;;;;5008095;28;20207;-79
2022/09/18 05:02:47;;;;;;;4.65;1.80;;;9.90;99.90;;;;;;5008008;28;20201;-80
2022/09/18 05:05:14;;;;;;;4.03;1.85;;;9.90;99.90;;;;;;5005841;28;20232;-79
2022/09/18 05:07:41;;;;;;;2.10;1.80;;;9.80;99.90;;;;;;5007218;28;20251;-80
2022/09/18 05:10:09;;;;;;;4.35;1.80;;;9.80;99.90;;;;;;5007208;28;20315;-80
2022/09/18 05:12:39;;;;;;;2.97;2.05;;;9.80;99.90;;;;;;5014976;28;20223;-79
2022/09/18 05:15:06;;;;;;;4.40;2.00;;;9.80;99.90;;;;;;5008443;28;20762;-80
2022/09/18 05:17:35;;;;;;;1.95;1.80;;;9.80;99.90;;;;;;5010435;28;20255;-80
2022/09/18 05:20:02;;;;;;;2.10;1.90;;;9.80;99.90;;;;;;5009349;28;20683;-79
2022/09/18 05:22:29;;;;;;;3.85;2.80;;;9.80;99.90;;;;;;5008078;28;20215;-80
2022/09/18 05:24:56;;;;;;;4.70;2.38;;;9.80;99.90;;;;;;5007669;28;20210;-79
2022/09/18 05:27:24;;;;;;;2.92;2.65;;;9.80;99.90;;;;;;5011460;28;20204;-80
2022/09/18 05:29:51;;;;;;;2.95;2.75;;;9.80;99.90;;;;;;5009644;28;20199;-80
2022/09/18 05:32:19;;;;;;;3.80;2.58;;;9.80;99.90;;;;;;5011728;28;20230;-80
2022/09/18 05:34:48;;;;;;;4.15;2.75;;;9.80;99.90;;;;;;5003387;28;20559;-82
2022/09/18 05:37:16;;;;;;;4.00;2.53;;;9.80;99.90;;;;;;5008574;28;20206;-78
2022/09/18 05:39:43;;;;;;;3.17;2.60;;;9.80;99.90;;;;;;5015432;28;20560;-81
2022/09/18 05:42:10;;;;;;;2.80;2.60;;;9.80;99.90;;;;;;5009394;28;20195;-80
2022/09/18 05:44:37;;;;;;;2.88;2.25;;;9.80;99.90;;;;;;5013142;28;20194;-81
2022/09/18 05:47:05;;;;;;;5.03;2.53;;;9.80;99.90;;;;;;5014548;28;20684;-81
2022/09/18 05:49:32;;;;;;;3.65;2.92;;;9.80;99.90;;;;;;5011806;28;20661;-80
2022/09/18 05:52:00;;;;;;;3.30;3.00;;;9.70;99.90;;;;;;5013018;28;20286;-81
2022/09/18 05:54:27;;;;;;;4.22;2.65;;;9.80;99.90;;;;;;5010946;28;20194;-81
2022/09/18 05:56:54;;;;;;;3.28;2.97;;;9.80;99.90;;;;;;5013643;28;21930;-80
2022/09/18 05:59:21;;;;;;;3.80;3.42;;;9.80;99.90;;;;;;5012815;28;20203;-79
2022/09/18 06:01:48;;;;;;;3.95;3.65;;;9.80;99.90;;;;;;5009660;28;20207;-81
2022/09/18 06:04:15;;;;;;;4.72;3.33;;;9.80;99.90;;;;;;5009598;28;20299;-81
2022/09/18 06:06:42;;;;;;;2.63;2.45;;;9.80;99.90;;;;;;5014425;28;20220;-80
2022/09/18 06:09:11;;;;;;;3.75;3.10;;;9.90;99.90;;;;;;5011824;28;20236;-83
2022/09/18 06:11:38;;;;;;;3.38;3.05;;;9.80;99.90;;;;;;5013936;28;20625;-81
2022/09/18 06:14:04;;;;;;;3.80;3.53;;;9.80;99.90;;;;;;5014224;28;20222;-81
2022/09/18 06:16:31;;;;;;;3.38;3.08;;;9.80;99.90;;;;;;5014322;28;20226;-82
2022/09/18 06:18:58;;;;;;;5.28;4.00;;;9.80;99.90;;;;;;5012936;28;20208;-81
2022/09/18 06:21:25;;;;;;;4.30;3.70;;;9.80;99.90;;;;;;5014091;28;20216;-82
2022/09/18 06:23:52;;;;;;;5.32;3.85;;;9.80;99.90;;;;;;5008163;28;20212;-80
2022/09/18 06:26:21;;;;;;;4.18;3.10;;;9.80;99.90;;;;;;5014118;28;20261;-82
2022/09/18 06:28:48;;;;;;;6.50;3.50;;;9.90;99.90;;;;;;5014183;28;20290;-81
2022/09/18 06:31:15;;;;;;;3.45;3.17;;;9.80;99.90;;;;;;5012326;28;20294;-82
2022/09/18 06:33:42;;;;;;;4.22;3.55;;;9.80;99.90;;;;;;4996077;28;20232;-81
2022/09/18 06:36:12;;;;;;;3.90;3.60;;;9.80;99.90;;;;;;5010164;28;20235;-82
2022/09/18 06:38:40;;;;;;;4.15;3.78;;;9.80;99.90;;;;;;5002158;28;20207;-81
2022/09/18 06:41:07;;;;;;;5.32;3.60;;;9.80;99.90;;;;;;5013740;28;20557;-82
2022/09/18 06:43:36;;;;;;;3.90;3.40;;;9.80;99.90;;;;;;5011300;28;20201;-81
2022/09/18 06:46:04;;;;;;;5.82;3.83;;;9.80;99.90;;;;;;5013624;28;20210;-81
2022/09/18 06:48:31;;;;;;;3.97;3.50;;;9.80;99.90;;;;;;5014034;28;20200;-82
2022/09/18 06:50:59;;;;;;;5.90;4.20;;;9.80;99.90;;;;;;5012902;28;20203;-81
2022/09/18 06:53:26;;;;;;;5.20;3.40;;;9.80;99.90;;;;;;5009044;28;20224;-80
2022/09/18 06:55:58;;;;;;;4.90;3.53;;;9.90;99.90;;;;;;5001091;28;20280;-80
2022/09/18 06:58:25;;;;;;;3.50;3.05;;;9.90;99.90;;;;;;5003685;28;20244;-81
2022/09/18 07:00:54;;;;;;;4.18;3.10;;;9.90;99.90;;;;;;4998682;28;21148;-80
2022/09/18 07:03:21;;;;;;;3.35;3.05;;;9.90;99.90;;;;;;5008395;28;20227;-82
2022/09/18 07:05:50;;;;;;;4.15;2.80;;;10.00;99.90;;;;;;5008129;28;20377;-79
2022/09/18 07:08:17;;;;;;;4.82;2.60;;;10.00;99.90;;;;;;4998276;28;20220;-82
2022/09/18 07:10:44;;;;;;;13.52;3.08;;;10.00;99.90;;;;;;5002363;28;20225;-81
2022/09/18 07:13:11;;;;;;;3.63;2.80;;;10.10;99.90;;;;;;5009729;28;20695;-83
2022/09/18 07:15:38;;;;;;;2.78;2.47;;;10.10;99.90;;;;;;5013351;28;20255;-81
2022/09/18 07:18:08;;;;;;;3.28;2.97;;;10.10;99.90;;;;;;5010494;28;20297;-80
2022/09/18 07:20:34;;;;;;;6.07;3.20;;;10.10;99.90;;;;;;5005383;28;20206;-81
2022/09/18 07:23:02;;;;;;;5.30;2.90;;;10.20;99.90;;;;;;5003672;28;20207;-81
2022/09/18 07:25:32;;;;;;;4.20;2.70;;;10.20;99.90;;;;;;5010685;28;20240;-81
2022/09/18 07:28:03;;;;;;;2.60;2.08;;;10.20;99.90;;;;;;5017362;28;20215;-78
2022/09/18 07:30:30;;;;;;;3.75;2.00;;;10.20;99.90;;;;;;4993455;28;20552;-81
2022/09/18 07:32:57;;;;;;;9.32;2.35;;;10.30;99.90;;;;;;5008973;28;20232;-81
2022/09/18 07:35:25;;;;;;;3.10;2.03;;;10.30;99.90;;;;;;4998395;28;20217;-82
2022/09/18 07:37:56;;;;;;;3.25;1.95;;;10.40;99.90;;;;;;5010377;28;20292;-81
2022/09/18 07:40:23;;;;;;;2.72;1.85;;;10.50;99.90;;;;;;5008845;28;20235;-81
2022/09/18 07:42:50;;;;;;;5.07;1.85;;;10.60;99.90;;;;;;5002105;28;20291;-82
2022/09/18 07:45:17;;;;;;;2.95;1.95;;;10.70;99.90;;;;;;5013618;28;20606;-80
2022/09/18 07:47:44;;;;;;;2.55;1.80;;;10.80;99.90;;;;;;5009329;28;20218;-82
2022/09/18 07:50:14;;;;;;;1.85;1.55;;;10.90;99.90;;;;;;5010353;28;20199;-80
2022/09/18 07:52:50;;;;;;;2.42;1.50;;;11.00;99.90;;;;;;5009425;28;20228;-75
2022/09/18 07:55:19;;;;;;;2.55;1.48;;;11.00;99.90;;;;;;5009702;28;20684;-77
2022/09/18 07:57:47;;;;;;;3.15;1.65;;;10.90;99.90;;;;;;5007363;28;20661;-81
2022/09/18 08:00:14;;;;;;;4.20;1.73;;;11.00;99.90;;;;;;5010434;28;20194;-81
2022/09/18 08:02:41;;;;;;;3.55;1.60;;;11.00;99.90;;;;;;5004204;28;20590;-84
2022/09/18 08:05:09;;;;;;;1.60;1.40;;;11.00;99.90;;;;;;5003692;28;20236;-82
2022/09/18 08:07:37;;;;;;;2.00;1.70;;;11.00;99.90;;;;;;5019072;28;20271;-83
2022/09/18 08:10:07;;;;;;;3.05;1.58;;;11.10;99.90;;;;;;5011555;28;20205;-82
2022/09/18 08:12:34;;;;;;;1.73;1.60;;;11.20;99.90;;;;;;5005866;28;20256;-83
2022/09/18 08:15:01;;;;;;;4.75;2.00;;;11.20;99.90;;;;;;5010780;28;20864;-82
2022/09/18 08:17:28;;;;;;;3.47;1.70;;;11.20;99.90;;;;;;5006796;28;20209;-82
2022/09/18 08:19:54;;;;;;;2.97;1.58;;;11.20;99.90;;;;;;5006479;28;20236;-83
2022/09/18 08:22:22;;;;;;;2.10;1.40;;;11.20;99.90;;;;;;5005910;28;20201;-80
2022/09/18 08:24:48;;;;;;;2.22;1.40;;;11.10;99.90;;;;;;5008096;28;20388;-82
2022/09/18 08:27:17;;;;;;;2.03;1.52;;;11.10;99.90;;;;;;5004855;28;20531;-82
2022/09/18 08:29:44;;;;;;;3.00;1.55;;;11.10;99.90;;;;;;5007623;28;20202;-82
2022/09/18 08:32:11;;;;;;;2.28;1.65;;;11.10;99.90;;;;;;5004830;28;20292;-81
2022/09/18 08:34:38;;;;;;;1.83;1.50;;;11.20;99.90;;;;;;4999849;28;20320;-81
2022/09/18 08:37:05;;;;;;;4.93;1.63;;;11.20;99.90;;;;;;5006406;28;20200;-82
2022/09/18 08:39:32;;;;;;;1.65;1.50;;;11.30;99.90;;;;;;5012209;28;20206;-81
2022/09/18 08:42:10;;;;;;;1.85;1.35;;;11.30;99.90;;;;;;5008069;28;20201;-74
2022/09/18 08:44:47;;;;;;;2.17;1.63;;;11.40;99.90;;;;;;5006478;28;20308;-82
2022/09/18 08:47:17;;;;;;;3.90;1.50;;;11.50;99.90;;;;;;5009885;28;20200;-78
2022/09/18 08:49:47;;;;;;;2.65;1.67;;;11.60;99.90;;;;;;5008624;28;20213;-85
2022/09/18 08:52:17;;;;;;;2.60;1.83;;;11.70;99.90;;;;;;5004262;28;20202;-84
2022/09/18 08:54:49;;;;;;;2.78;1.48;;;11.80;99.90;;;;;;5003643;28;20230;-83
2022/09/18 08:57:20;;;;;;;3.20;1.90;;;11.80;99.90;;;;;;5011192;28;20253;-83
2022/09/18 08:59:52;;;;;;;2.92;2.00;;;11.80;99.90;;;;;;5010153;28;20606;-83
2022/09/18 09:02:36;;;;;;;2.50;2.10;;;11.70;99.90;;;;;;5010968;28;20232;-84
2022/09/18 09:05:08;;;;;;;2.10;1.90;;;11.60;99.90;;;;;;5001915;28;20226;-84
2022/09/18 09:08:09;;;;;;;4.05;2.08;;;11.60;99.90;;;;;;5010966;28;20202;-83
2022/09/18 09:10:49;;;;;;;4.25;2.10;;;11.60;99.90;;;;;;5001713;28;20204;-83
2022/09/18 09:13:45;;;;;;;2.40;1.85;;;11.60;99.90;;;;;;5001672;28;20218;-83
2022/09/18 09:16:17;;;;;;;2.25;1.85;;;11.70;99.90;;;;;;5007238;28;20612;-84
2022/09/18 09:18:57;;;;;;;2.33;1.75;;;11.60;99.90;;;;;;5011324;28;20302;-83
2022/09/18 09:21:48;;;;;;;5.72;2.30;;;11.60;99.90;;;;;;5009410;28;20194;-84
2022/09/18 09:24:30;;;;;;;4.20;1.90;;;11.50;99.90;;;;;;5007478;28;20226;-84
2022/09/18 09:26:59;;;;;;;2.47;1.70;;;11.70;99.90;;;;;;5006228;28;20213;-83
2022/09/18 09:29:30;;;;;;;3.08;1.50;;;11.70;99.90;;;;;;5011055;28;20562;-83
2022/09/18 09:32:04;;;;;;;2.63;1.85;;;11.90;99.90;;;;;;5010192;28;20255;-83
2022/09/18 09:34:35;;;;;;;3.65;2.13;;;11.90;99.90;;;;;;5010494;28;20743;-82
2022/09/18 09:37:08;;;;;;;3.65;1.70;;;11.90;99.90;;;;;;5010365;28;20562;-83
2022/09/18 09:39:40;;;;;;;2.00;1.63;;;11.90;99.90;;;;;;5007811;28;20206;-83
2022/09/18 09:42:17;;;;;;;2.85;1.63;;;11.90;99.90;;;;;;5009605;28;20202;-84
2022/09/18 09:44:51;;;;;;;2.00;1.35;;;11.90;99.90;;;;;;5010447;28;20218;-83
2022/09/18 09:47:34;;;;;;;2.85;1.38;;;11.90;99.90;;;;;;5016371;28;20229;-83
2022/09/18 09:50:15;;;;;;;4.43;1.42;;;11.90;99.90;;;;;;4999585;28;20217;-83
2022/09/18 09:52:45;;;;;;;2.42;1.52;;;12.00;99.90;;;;;;5006943;28;20201;-84
2022/09/18 09:55:20;;;;;;;2.30;1.50;;;12.00;99.90;;;;;;5010135;28;20237;-84
2022/09/18 09:57:58;;;;;;;3.83;1.40;;;12.00;99.90;;;;;;5009642;28;20255;-84
2022/09/18 10:00:25;;;;;;;4.55;1.80;;;12.00;99.90;;;;;;5008589;28;20650;-83
2022/09/18 10:03:23;;;;;;;3.42;1.60;;;12.00;99.90;;;;;;5009443;28;20244;-83
2022/09/18 10:05:56;;;;;;;3.65;1.50;;;12.00;99.90;;;;;;5010101;28;20229;-83
2022/09/18 10:08:29;;;;;;;2.95;1.60;;;12.00;99.90;;;;;;4999216;28;20203;-83
2022/09/18 10:10:58;;;;;;;3.30;1.40;;;12.10;99.90;;;;;;5010425;28;20195;-83
2022/09/18 10:13:30;;;;;;;2.67;1.50;;;12.10;99.90;;;;;;5007882;28;20237;-83
2022/09/18 10:16:01;;;;;;;2.78;1.30;;;12.30;99.90;;;;;;5008159;28;20765;-82
2022/09/18 10:18:34;;;;;;;4.45;1.80;;;12.50;99.90;;;;;;5009624;28;20203;-82
2022/09/18 10:21:08;;;;;;;3.83;2.05;;;12.50;99.90;;;;;;5008673;28;20199;-82
2022/09/18 10:23:38;;;;;;;3.03;1.40;;;12.80;99.90;;;;;;5009637;28;20198;-82
2022/09/18 10:26:06;;;;;;;2.40;1.20;;;13.00;99.90;;;;;;5012485;28;20195;-82
2022/09/18 10:28:33;;;;;;;2.90;1.55;;;13.20;99.90;;;;;;5014957;28;20282;-83
2022/09/18 10:31:02;;;;;;;2.83;1.15;;;13.40;99.90;;;;;;5012719;28;20202;-82
2022/09/18 10:33:38;;;;;;;3.37;1.67;;;13.50;99.90;;;;;;5011476;28;20195;-83
2022/09/18 10:36:22;;;;;;;3.67;1.87;;;13.70;99.90;;;;;;5013374;28;20883;-83
2022/09/18 10:38:49;;;;;;;2.75;1.13;;;13.60;99.90;;;;;;5009461;28;20960;-83
2022/09/18 10:41:27;;;;;;;3.67;1.27;;;13.70;99.90;;;;;;5016017;28;20200;-83
2022/09/18 10:43:58;;;;;;;3.90;1.30;;;14.00;99.90;;;;;;5021261;28;20272;-83
2022/09/18 10:46:30;;;;;;;1.63;1.13;;;14.20;99.90;;;;;;5024328;28;20442;-84
2022/09/18 10:49:14;;;;;;;1.40;1.00;;;14.50;99.90;;;;;;5020968;28;20449;-83
2022/09/18 10:51:41;;;;;;;1.70;1.10;;;14.70;99.90;;;;;;5009410;28;21033;-83
2022/09/18 10:54:16;;;;;;;2.10;1.17;;;14.80;99.90;;;;;;5010910;28;20497;-83
2022/09/18 10:56:44;;;;;;;4.57;1.50;;;14.90;99.90;;;;;;5014337;28;20454;-83
2022/09/18 10:59:33;;;;;;;4.00;0.90;;;14.90;99.90;;;;;;5012612;28;20451;-83
2022/09/18 11:02:03;;;;;;;4.00;1.47;;;15.00;99.90;;;;;;5012832;28;20522;-84
2022/09/18 11:04:32;;;;;;;3.60;1.20;;;15.30;99.90;;;;;;5011474;28;21023;-84
2022/09/18 11:07:06;;;;;;;3.40;1.10;;;15.30;99.90;;;;;;5012386;28;20809;-83
2022/09/18 11:09:37;;;;;;;3.90;1.87;;;15.40;99.90;;;;;;5010578;28;20461;-83
2022/09/18 11:12:04;;;;;;;2.17;1.20;;;15.70;99.90;;;;;;5017106;28;20527;-83
2022/09/18 11:14:38;;;;;;;2.60;1.23;;;15.80;99.90;;;;;;5013628;28;20488;-84
2022/09/18 11:17:05;;;;;;;1.93;1.07;;;15.80;99.90;;;;;;5012498;28;20460;-83
2022/09/18 11:19:36;;;;;;;2.17;1.10;;;15.80;99.90;;;;;;5009666;28;20497;-83
2022/09/18 11:22:05;;;;;;;2.03;1.10;;;15.80;99.90;;;;;;5012361;28;20461;-84
2022/09/18 11:24:35;;;;;;;1.97;1.13;;;16.00;99.90;;;;;;5010723;28;21018;-84
2022/09/18 11:27:03;;;;;;;1.93;1.30;;;16.40;99.90;;;;;;5013415;28;20437;-83
2022/09/18 11:29:32;;;;;;;2.10;1.00;;;16.80;99.90;;;;;;5011639;28;20484;-81
2022/09/18 11:32:10;;;;;;;1.70;1.00;;;17.20;99.90;;;;;;5012486;28;20442;-83
2022/09/18 11:34:44;;;;;;;1.80;0.97;;;17.50;99.90;;;;;;5009948;28;20829;-81
2022/09/18 11:37:13;;;;;;;2.37;1.10;;;17.70;99.90;;;;;;5012047;28;20459;-85
2022/09/18 11:39:44;;;;;;;1.73;0.90;;;17.70;99.90;;;;;;5006419;28;20457;-84
2022/09/18 11:42:13;;;;;;;2.20;1.33;;;17.40;99.90;;;;;;5012904;28;20469;-83
2022/09/18 11:44:41;;;;;;;2.70;1.00;;;17.40;99.90;;;;;;5011444;28;20485;-84
2022/09/18 11:47:24;;;;;;;2.00;0.80;;;17.50;99.90;;;;;;5012509;28;20492;-84
2022/09/18 11:49:58;;;;;;;2.13;0.93;;;17.40;99.90;;;;;;5011232;28;20555;-84
2022/09/18 11:52:30;;;;;;;1.33;0.80;;;17.10;99.90;;;;;;5011551;28;20457;-84
2022/09/18 11:55:02;;;;;;;1.77;1.03;;;16.90;99.90;;;;;;5010178;28;20494;-83
2022/09/18 11:57:34;;;;;;;3.00;0.90;;;16.80;99.90;;;;;;5012731;28;21025;-83
2022/09/18 12:00:05;;;;;;;3.30;1.20;;;16.60;99.90;;;;;;5011159;28;20539;-84
2022/09/18 12:02:38;;;;;;;1.63;0.90;;;16.50;99.90;;;;;;5011292;28;20501;-83
2022/09/18 12:05:23;;;;;;;1.50;0.90;;;16.60;99.90;;;;;;5003842;28;20492;-84
2022/09/18 12:08:06;;;;;;;2.87;0.80;;;16.50;99.90;;;;;;5010348;28;20472;-84
2022/09/18 12:10:52;;;;;;;2.03;0.80;;;16.50;99.90;;;;;;5011492;28;20464;-83
2022/09/18 12:13:37;;;;;;;1.20;0.80;;;17.00;99.90;;;;;;5008720;28;20465;-84
2022/09/18 12:16:13;;;;;;;1.53;0.90;;;17.00;99.90;;;;;;5011467;28;20488;-84
2022/09/18 12:18:49;;;;;;;1.83;1.20;;;17.10;99.90;;;;;;5011046;28;20457;-85
2022/09/18 12:21:21;;;;;;;3.70;1.13;;;17.30;99.90;;;;;;5012050;28;20464;-83
2022/09/18 12:23:48;;;;;;;1.80;0.90;;;17.00;99.90;;;;;;5012232;28;20476;-84
2022/09/18 12:26:22;;;;;;;2.60;1.00;;;16.50;99.90;;;;;;5006884;28;20437;-84
2022/09/18 12:29:03;;;;;;;1.50;1.03;;;16.50;99.90;;;;;;5009197;28;20884;-84
2022/09/18 12:31:40;;;;;;;1.80;1.00;;;16.20;99.90;;;;;;5005602;28;20481;-83
2022/09/18 12:34:15;;;;;;;1.67;1.00;;;15.90;99.90;;;;;;5009528;28;20488;-85
2022/09/18 12:36:55;;;;;;;2.73;1.07;;;15.80;99.90;;;;;;5011631;28;20487;-83
2022/09/18 12:39:36;;;;;;;3.00;1.07;;;15.70;99.90;;;;;;5010963;28;20463;-82
2022/09/18 12:42:15;;;;;;;2.90;1.10;;;15.60;99.90;;;;;;5011447;28;20451;-83
2022/09/18 12:45:21;;;;;;;1.93;1.13;;;15.50;99.90;;;;;;5009186;28;20503;-83
2022/09/18 12:48:07;;;;;;;2.30;1.30;;;15.30;99.90;;;;;;5001349;28;20520;-83
2022/09/18 12:50:48;;;;;;;1.10;0.90;;;15.30;99.90;;;;;;5002945;28;20796;-83
2022/09/18 12:53:30;;;;;;;2.80;1.07;;;15.30;99.90;;;;;;5008823;28;20499;-84
2022/09/18 12:56:11;;;;;;;2.50;1.20;;;15.30;99.90;;;;;;5007520;28;20587;-82
2022/09/18 12:59:07;;;;;;;1.90;0.90;;;15.30;99.90;;;;;;5009386;28;20482;-82
2022/09/18 13:01:39;;;;;;;2.80;1.10;;;15.40;99.90;;;;;;5002639;28;20516;-84
2022/09/18 13:04:22;;;;;;;1.87;1.00;;;15.20;99.90;;;;;;5004952;28;20480;-81
2022/09/18 13:06:56;;;;;;;3.53;1.30;;;15.00;99.90;;;;;;5011015;28;20499;-80
2022/09/18 13:09:31;;;;;;;1.90;1.07;;;14.70;99.90;;;;;;5011218;28;20458;-81
2022/09/18 13:12:02;;;;;;;4.23;1.40;;;14.60;99.90;;;;;;5010592;28;20502;-84